Time;durP1;ratioP1;P1;durP2;ratioP2;P2;SDS_P1;SDS_P2;PMS_P1;PMS_P2;Temp;Humidity;BMP_temperature;BMP_pressure;BME280_temperature;BME280_humidity;BME280_pressure;Samples;Min_cycle;Max_cycle;Signal;HPM_P1;HPM_P2
2022/05/30 00:02:23;;;;;;;4.30;3.08;;;;;;;;;;4987877;28;20647;-51
2022/05/30 00:04:48;;;;;;;3.70;2.90;;;;;;;;;;4990232;28;20141;-51
2022/05/30 00:07:13;;;;;;;4.60;3.20;;;;;;;;;;4985893;28;20811;-49
2022/05/30 00:09:38;;;;;;;5.07;2.60;;;;;;;;;;4989460;28;20265;-51
2022/05/30 00:12:04;;;;;;;4.97;2.87;;;;;;;;;;4990644;28;20364;-49
2022/05/30 00:14:29;;;;;;;3.97;2.80;;;;;;;;;;4988405;28;20285;-50
2022/05/30 00:16:55;;;;;;;3.47;2.40;;;;;;;;;;4988837;28;21570;-49
2022/05/30 00:19:20;;;;;;;5.70;2.60;;;;;;;;;;4990210;28;20356;-49
2022/05/30 00:21:45;;;;;;;5.27;2.87;;;;;;;;;;4989663;28;20088;-49
2022/05/30 00:24:11;;;;;;;5.13;2.53;;;;;;;;;;4987877;28;20277;-50
2022/05/30 00:26:36;;;;;;;5.27;2.73;;;;;;;;;;4984415;28;20046;-50
2022/05/30 00:29:02;;;;;;;4.20;2.83;;;;;;;;;;4986320;28;20271;-50
2022/05/30 00:31:27;;;;;;;4.20;2.90;;;;;;;;;;4985892;28;20421;-49
2022/05/30 00:33:52;;;;;;;4.43;2.80;;;;;;;;;;4986585;28;20355;-50
2022/05/30 00:36:18;;;;;;;4.28;2.60;;;;;;;;;;4990134;28;20029;-48
2022/05/30 00:38:43;;;;;;;5.68;3.05;;;;;;;;;;4986302;28;20397;-50
2022/05/30 00:41:08;;;;;;;4.72;3.05;;;;;;;;;;4989224;28;20027;-49
2022/05/30 00:43:34;;;;;;;4.20;2.70;;;;;;;;;;4989286;28;20053;-51
2022/05/30 00:46:00;;;;;;;4.50;2.90;;;;;;;;;;4968743;28;20388;-51
2022/05/30 00:48:30;;;;;;;3.97;2.78;;;;;;;;;;4985099;28;20030;-51
2022/05/30 00:50:57;;;;;;;4.03;2.95;;;;;;;;;;4987444;28;20030;-49
2022/05/30 00:53:22;;;;;;;5.75;2.63;;;;;;;;;;4989856;28;20049;-51
2022/05/30 00:55:47;;;;;;;3.80;2.40;;;;;;;;;;4990009;28;20489;-49
2022/05/30 00:58:13;;;;;;;4.37;2.70;;;;;;;;;;4985341;28;20356;-49
2022/05/30 01:00:38;;;;;;;6.82;2.95;;;;;;;;;;4984006;28;20262;-49
2022/05/30 01:08:31;;;;;;;4.00;2.50;;;;;;;;;;4965438;28;20046;-50
2022/05/30 01:10:56;;;;;;;3.50;2.80;;;;;;;;;;4987451;28;20412;-51
2022/05/30 01:13:23;;;;;;;3.88;2.65;;;;;;;;;;4988936;28;20269;-49
2022/05/30 01:15:49;;;;;;;3.47;2.47;;;;;;;;;;4985270;28;20762;-49
2022/05/30 01:18:16;;;;;;;5.90;3.05;;;;;;;;;;4985832;28;20038;-49
2022/05/30 01:20:48;;;;;;;5.20;2.70;;;;;;;;;;4968435;28;20085;-52
2022/05/30 01:23:22;;;;;;;4.43;2.50;;;;;;;;;;4982348;28;20038;-51
2022/05/30 01:26:05;;;;;;;3.92;2.30;;;;;;;;;;4986344;28;20486;-51
2022/05/30 01:28:48;;;;;;;5.15;2.63;;;;;;;;;;4985583;28;20033;-51
2022/05/30 01:31:13;;;;;;;5.57;2.45;;;;;;;;;;4985146;28;20080;-49
2022/05/30 01:33:39;;;;;;;4.28;3.08;;;;;;;;;;4985986;28;20030;-51
2022/05/30 01:36:04;;;;;;;6.35;3.28;;;;;;;;;;4981779;28;20030;-50
2022/05/30 01:38:30;;;;;;;6.53;3.03;;;;;;;;;;4991029;28;20038;-50
2022/05/30 01:40:55;;;;;;;6.50;3.90;;;;;;;;;;4984940;28;20061;-51
2022/05/30 01:43:21;;;;;;;6.53;3.33;;;;;;;;;;4989706;28;20034;-50
2022/05/30 01:45:46;;;;;;;5.85;3.22;;;;;;;;;;4984897;28;20030;-49
2022/05/30 01:48:11;;;;;;;6.10;3.17;;;;;;;;;;4980226;28;20030;-48
2022/05/30 01:50:36;;;;;;;7.77;3.07;;;;;;;;;;4981117;28;20297;-50
2022/05/30 01:53:02;;;;;;;5.10;2.93;;;;;;;;;;4966815;28;20286;-50
2022/05/30 01:55:27;;;;;;;6.05;3.55;;;;;;;;;;4987986;28;20285;-51
2022/05/30 01:57:52;;;;;;;5.20;3.40;;;;;;;;;;4985067;28;20022;-49
2022/05/30 02:00:18;;;;;;;6.80;3.27;;;;;;;;;;4982299;28;20293;-49
2022/05/30 02:02:43;;;;;;;6.60;3.05;;;;;;;;;;4982997;28;20286;-49
2022/05/30 02:05:09;;;;;;;6.40;3.92;;;;;;;;;;4984108;28;20151;-51
2022/05/30 02:07:34;;;;;;;7.03;3.33;;;;;;;;;;4984516;28;20811;-50
2022/05/30 02:10:00;;;;;;;8.03;2.90;;;;;;;;;;4985024;28;20018;-50
2022/05/30 02:12:25;;;;;;;5.77;3.30;;;;;;;;;;4984222;28;20269;-51
2022/05/30 02:14:50;;;;;;;5.25;2.97;;;;;;;;;;4984314;28;20253;-50
2022/05/30 02:17:15;;;;;;;5.13;3.60;;;;;;;;;;4985200;28;20021;-50
2022/05/30 02:19:43;;;;;;;6.63;2.93;;;;;;;;;;4984831;28;20030;-49
2022/05/30 02:22:12;;;;;;;5.05;3.28;;;;;;;;;;4981892;28;20300;-50
2022/05/30 02:24:38;;;;;;;6.25;3.05;;;;;;;;;;4984081;28;20022;-50
2022/05/30 02:27:04;;;;;;;6.07;3.05;;;;;;;;;;4993958;28;20033;-49
2022/05/30 02:29:29;;;;;;;4.22;2.85;;;;;;;;;;4989367;28;20029;-49
2022/05/30 02:31:54;;;;;;;5.20;3.07;;;;;;;;;;4989497;28;20030;-50
2022/05/30 02:37:03;;;;;;;4.78;3.08;;;;;;;;;;4988165;28;20312;-50
2022/05/30 02:39:29;;;;;;;5.60;3.00;;;;;;;;;;4985942;28;20081;-50
2022/05/30 02:41:54;;;;;;;4.93;2.80;;;;;;;;;;4984391;28;20418;-51
2022/05/30 02:44:20;;;;;;;7.97;3.40;;;;;;;;;;4984936;28;20311;-49
2022/05/30 02:46:48;;;;;;;6.88;2.85;;;;;;;;;;4987778;28;20026;-49
2022/05/30 02:49:14;;;;;;;5.00;3.05;;;;;;;;;;4984758;28;20146;-50
2022/05/30 02:51:39;;;;;;;5.40;3.10;;;;;;;;;;4986951;28;20173;-50
2022/05/30 02:54:04;;;;;;;4.97;2.83;;;;;;;;;;4972070;28;20365;-50
2022/05/30 02:56:30;;;;;;;6.30;3.10;;;;;;;;;;4991798;28;20084;-51
2022/05/30 02:58:57;;;;;;;4.33;2.93;;;;;;;;;;4988126;28;20521;-50
2022/05/30 03:01:22;;;;;;;6.03;2.95;;;;;;;;;;4983262;28;20281;-50
2022/05/30 03:03:47;;;;;;;3.90;2.47;;;;;;;;;;4988506;28;20019;-51
2022/05/30 03:06:13;;;;;;;4.97;2.60;;;;;;;;;;4992169;28;20406;-51
2022/05/30 03:08:38;;;;;;;5.30;2.75;;;;;;;;;;4991361;28;20014;-50
2022/05/30 03:11:03;;;;;;;5.10;2.60;;;;;;;;;;4987160;28;20113;-49
2022/05/30 03:13:29;;;;;;;6.40;3.10;;;;;;;;;;4987909;28;20041;-49
2022/05/30 03:15:54;;;;;;;5.45;2.75;;;;;;;;;;4986797;28;20505;-51
2022/05/30 03:18:20;;;;;;;5.65;2.72;;;;;;;;;;4994616;28;20037;-51
2022/05/30 03:20:45;;;;;;;5.40;3.03;;;;;;;;;;4992362;28;20089;-51
2022/05/30 03:23:10;;;;;;;6.00;3.08;;;;;;;;;;4988086;28;20033;-50
2022/05/30 03:25:35;;;;;;;8.07;2.90;;;;;;;;;;4989397;28;20077;-49
2022/05/30 03:28:01;;;;;;;7.27;3.20;;;;;;;;;;4986560;28;20740;-50
2022/05/30 03:30:26;;;;;;;7.63;2.85;;;;;;;;;;4983930;28;20761;-50
2022/05/30 03:32:51;;;;;;;3.67;2.80;;;;;;;;;;4984811;28;20027;-50
2022/05/30 03:35:17;;;;;;;6.75;2.88;;;;;;;;;;4988850;28;20030;-50
2022/05/30 03:37:42;;;;;;;7.15;3.00;;;;;;;;;;4985259;28;20703;-50
2022/05/30 03:40:08;;;;;;;6.70;3.00;;;;;;;;;;4983138;28;20030;-51
2022/05/30 03:42:33;;;;;;;4.82;3.15;;;;;;;;;;4986638;28;20461;-50
2022/05/30 03:44:59;;;;;;;5.43;2.57;;;;;;;;;;4985244;28;20034;-50
2022/05/30 03:47:24;;;;;;;4.88;2.90;;;;;;;;;;4978696;28;20302;-50
2022/05/30 03:49:49;;;;;;;6.38;2.80;;;;;;;;;;4985838;28;20509;-52
2022/05/30 03:52:14;;;;;;;4.68;2.97;;;;;;;;;;4985872;28;20029;-49
2022/05/30 03:54:40;;;;;;;5.68;3.30;;;;;;;;;;4985107;28;20029;-50
2022/05/30 03:57:05;;;;;;;4.43;2.72;;;;;;;;;;4984565;28;20145;-49
2022/05/30 03:59:30;;;;;;;6.57;3.20;;;;;;;;;;4981491;28;20049;-50
2022/05/30 04:01:56;;;;;;;5.05;3.13;;;;;;;;;;4983209;28;20270;-50
2022/05/30 04:04:22;;;;;;;5.82;2.70;;;;;;;;;;4985780;28;20608;-50
2022/05/30 04:06:47;;;;;;;5.80;2.60;;;;;;;;;;4985456;28;20552;-50
2022/05/30 04:09:12;;;;;;;4.27;2.60;;;;;;;;;;4984878;28;20027;-51
2022/05/30 04:11:38;;;;;;;4.17;2.50;;;;;;;;;;4986577;28;20878;-51
2022/05/30 04:14:03;;;;;;;5.20;3.00;;;;;;;;;;4983752;28;20265;-50
2022/05/30 04:16:28;;;;;;;3.27;2.50;;;;;;;;;;4985276;28;20041;-50
2022/05/30 04:18:53;;;;;;;6.82;3.00;;;;;;;;;;4986230;28;20910;-51
2022/05/30 04:21:19;;;;;;;3.90;2.58;;;;;;;;;;4982744;28;20109;-51
2022/05/30 04:23:44;;;;;;;5.00;3.00;;;;;;;;;;4984339;28;20022;-51
2022/05/30 04:26:10;;;;;;;3.83;2.72;;;;;;;;;;4986620;28;20453;-51
2022/05/30 04:28:35;;;;;;;6.28;2.83;;;;;;;;;;4987293;28;20010;-50
2022/05/30 04:31:04;;;;;;;4.73;2.87;;;;;;;;;;4964243;28;20708;-50
2022/05/30 04:33:32;;;;;;;5.15;3.00;;;;;;;;;;4987520;28;20281;-51
2022/05/30 04:35:58;;;;;;;5.63;3.20;;;;;;;;;;4982555;28;20414;-50
2022/05/30 04:38:23;;;;;;;4.20;2.83;;;;;;;;;;4988959;28;20061;-51
2022/05/30 04:40:49;;;;;;;6.05;3.38;;;;;;;;;;4984049;28;20062;-50
2022/05/30 04:43:14;;;;;;;6.18;3.00;;;;;;;;;;4987742;28;20497;-51
2022/05/30 04:45:39;;;;;;;5.32;3.60;;;;;;;;;;4985232;28;20069;-51
2022/05/30 04:48:04;;;;;;;4.63;3.10;;;;;;;;;;4985148;28;20124;-51
2022/05/30 04:50:30;;;;;;;5.47;3.38;;;;;;;;;;4985713;28;20289;-50
2022/05/30 04:52:55;;;;;;;5.53;3.05;;;;;;;;;;4985311;28;20506;-51
2022/05/30 04:55:21;;;;;;;6.03;3.03;;;;;;;;;;4987627;28;20034;-50
2022/05/30 04:57:47;;;;;;;6.45;3.90;;;;;;;;;;4989007;28;20776;-51
2022/05/30 05:00:13;;;;;;;7.18;3.75;;;;;;;;;;4983431;28;20505;-51
2022/05/30 05:02:38;;;;;;;4.03;3.30;;;;;;;;;;4987878;28;20400;-49
2022/05/30 05:05:03;;;;;;;6.53;3.70;;;;;;;;;;4983590;28;20018;-49
2022/05/30 05:07:33;;;;;;;6.40;3.70;;;;;;;;;;4992556;28;20297;-50
2022/05/30 05:09:59;;;;;;;6.68;4.45;;;;;;;;;;4983614;28;20038;-54
2022/05/30 05:12:25;;;;;;;8.35;4.47;;;;;;;;;;4968050;28;20054;-49
2022/05/30 05:14:50;;;;;;;7.93;4.20;;;;;;;;;;4988817;28;20580;-51
2022/05/30 05:17:15;;;;;;;6.80;4.57;;;;;;;;;;4985253;28;20731;-50
2022/05/30 05:19:41;;;;;;;7.53;4.63;;;;;;;;;;4984529;28;20101;-50
2022/05/30 05:22:06;;;;;;;10.02;4.80;;;;;;;;;;4990609;28;20278;-50
2022/05/30 05:24:31;;;;;;;7.20;5.10;;;;;;;;;;4985509;28;20026;-50
2022/05/30 05:26:57;;;;;;;8.85;5.20;;;;;;;;;;4985926;28;20042;-51
2022/05/30 05:29:22;;;;;;;7.77;5.27;;;;;;;;;;4986335;28;20412;-51
2022/05/30 05:31:47;;;;;;;9.65;5.78;;;;;;;;;;4986372;28;20277;-50
2022/05/30 05:34:13;;;;;;;11.00;6.32;;;;;;;;;;4984708;28;20026;-51
2022/05/30 05:36:39;;;;;;;11.52;6.28;;;;;;;;;;4986148;28;20037;-51
2022/05/30 05:39:05;;;;;;;8.70;5.75;;;;;;;;;;4982822;28;20417;-50
2022/05/30 05:41:30;;;;;;;8.90;5.93;;;;;;;;;;4983954;28;20054;-54
2022/05/30 05:43:55;;;;;;;15.35;6.90;;;;;;;;;;4984055;28;20113;-52
2022/05/30 05:46:22;;;;;;;8.55;6.20;;;;;;;;;;4966908;28;20101;-51
2022/05/30 05:48:48;;;;;;;10.85;6.38;;;;;;;;;;4982617;28;20109;-49
2022/05/30 05:51:18;;;;;;;13.43;6.95;;;;;;;;;;4987131;28;20030;-51
2022/05/30 05:53:43;;;;;;;9.95;6.82;;;;;;;;;;4981293;28;20022;-51
2022/05/30 05:56:12;;;;;;;9.67;6.73;;;;;;;;;;4985485;28;20461;-51
2022/05/30 05:58:37;;;;;;;10.98;6.55;;;;;;;;;;4985640;28;20344;-51
2022/05/30 06:01:09;;;;;;;9.47;5.77;;;;;;;;;;4978983;28;20113;-49
2022/05/30 06:03:34;;;;;;;9.48;5.65;;;;;;;;;;4975550;28;20340;-51
2022/05/30 06:05:59;;;;;;;13.20;6.37;;;;;;;;;;4985575;28;20042;-52
2022/05/30 06:08:24;;;;;;;10.20;6.37;;;;;;;;;;4985340;28;20784;-50
2022/05/30 06:11:05;;;;;;;14.53;6.40;;;;;;;;;;4983891;28;20462;-51
2022/05/30 06:13:30;;;;;;;11.32;6.90;;;;;;;;;;4984122;28;20336;-51
2022/05/30 06:15:55;;;;;;;14.52;6.30;;;;;;;;;;4986839;28;20596;-51
2022/05/30 06:18:20;;;;;;;13.63;6.87;;;;;;;;;;4985060;28;20510;-51
2022/05/30 06:20:46;;;;;;;12.03;6.23;;;;;;;;;;4985544;28;20291;-51
2022/05/30 06:23:11;;;;;;;11.67;6.07;;;;;;;;;;4985658;28;20094;-52
2022/05/30 06:25:36;;;;;;;13.45;6.18;;;;;;;;;;4986383;28;20276;-50
2022/05/30 06:28:02;;;;;;;12.38;5.95;;;;;;;;;;4986812;28;20039;-51
2022/05/30 06:30:27;;;;;;;13.93;6.32;;;;;;;;;;4988687;28;20126;-51
2022/05/30 06:32:52;;;;;;;13.47;6.43;;;;;;;;;;4989663;28;20033;-51
2022/05/30 06:35:17;;;;;;;14.37;6.70;;;;;;;;;;4988445;28;20791;-49
2022/05/30 06:37:43;;;;;;;12.90;5.97;;;;;;;;;;4988495;28;20406;-50
2022/05/30 06:40:08;;;;;;;14.23;6.65;;;;;;;;;;4988682;28;20328;-50
2022/05/30 06:42:34;;;;;;;12.00;6.00;;;;;;;;;;4992717;28;20836;-51
2022/05/30 06:44:59;;;;;;;16.70;6.70;;;;;;;;;;4988276;28;20477;-52
2022/05/30 06:47:24;;;;;;;16.43;6.50;;;;;;;;;;4985448;28;20415;-50
2022/05/30 06:49:50;;;;;;;16.83;6.95;;;;;;;;;;4987248;28;20360;-50
2022/05/30 06:52:15;;;;;;;15.20;6.63;;;;;;;;;;4987813;28;20046;-51
2022/05/30 06:54:40;;;;;;;13.73;6.63;;;;;;;;;;4986058;28;20085;-51
2022/05/30 06:59:50;;;;;;;15.90;6.35;;;;;;;;;;4983958;28;20403;-51
2022/05/30 07:02:15;;;;;;;12.70;6.40;;;;;;;;;;4992337;28;20108;-51
2022/05/30 07:04:40;;;;;;;15.07;6.88;;;;;;;;;;4993883;28;20026;-49
2022/05/30 07:07:07;;;;;;;17.50;6.40;;;;;;;;;;4991222;28;20145;-51
2022/05/30 07:09:32;;;;;;;14.82;6.30;;;;;;;;;;4990304;28;20026;-49
2022/05/30 07:11:58;;;;;;;12.20;6.70;;;;;;;;;;4993898;28;20034;-51
2022/05/30 07:14:23;;;;;;;18.00;6.93;;;;;;;;;;4992502;28;20022;-49
2022/05/30 07:16:48;;;;;;;15.13;7.33;;;;;;;;;;4986231;28;21091;-50
2022/05/30 07:19:14;;;;;;;20.13;7.18;;;;;;;;;;4991710;28;20363;-51
2022/05/30 07:21:39;;;;;;;12.57;7.13;;;;;;;;;;4987479;28;20073;-50
2022/05/30 07:24:05;;;;;;;15.23;7.45;;;;;;;;;;4991097;28;20277;-51
2022/05/30 07:26:30;;;;;;;13.88;6.88;;;;;;;;;;4973847;28;20045;-49
2022/05/30 07:28:55;;;;;;;16.07;7.53;;;;;;;;;;4990049;28;20034;-50
2022/05/30 07:31:21;;;;;;;14.47;7.10;;;;;;;;;;4973996;28;20299;-51
2022/05/30 07:33:47;;;;;;;15.05;7.15;;;;;;;;;;4978755;28;21112;-51
2022/05/30 07:36:16;;;;;;;15.82;7.88;;;;;;;;;;4980340;28;20033;-50
2022/05/30 07:38:41;;;;;;;16.55;6.70;;;;;;;;;;4983596;28;20263;-50
2022/05/30 07:41:07;;;;;;;14.00;7.15;;;;;;;;;;4986675;28;22202;-50
2022/05/30 07:43:32;;;;;;;11.98;7.15;;;;;;;;;;4967438;28;20022;-49
2022/05/30 07:46:03;;;;;;;14.13;7.13;;;;;;;;;;4984243;28;20064;-49
2022/05/30 07:48:29;;;;;;;16.88;6.90;;;;;;;;;;4982575;28;20351;-51
2022/05/30 07:50:57;;;;;;;14.55;7.13;;;;;;;;;;4984715;28;20505;-51
2022/05/30 07:53:23;;;;;;;13.05;7.25;;;;;;;;;;4982197;28;20031;-49
2022/05/30 07:55:48;;;;;;;11.73;7.05;;;;;;;;;;4986113;28;20029;-50
2022/05/30 07:58:13;;;;;;;17.70;7.87;;;;;;;;;;4982342;28;20457;-51
2022/05/30 08:00:38;;;;;;;15.50;7.00;;;;;;;;;;4989955;28;20010;-49
2022/05/30 08:03:04;;;;;;;11.70;6.90;;;;;;;;;;4985185;28;20026;-49
2022/05/30 08:05:29;;;;;;;12.70;6.72;;;;;;;;;;4984748;28;20266;-50
2022/05/30 08:07:54;;;;;;;14.00;7.00;;;;;;;;;;4983155;28;20058;-49
2022/05/30 08:10:19;;;;;;;13.43;7.40;;;;;;;;;;4983529;28;20292;-51
2022/05/30 08:12:46;;;;;;;12.35;6.80;;;;;;;;;;4985887;28;20525;-49
2022/05/30 08:15:11;;;;;;;12.45;6.78;;;;;;;;;;4985827;28;20509;-49
2022/05/30 08:17:36;;;;;;;10.80;6.60;;;;;;;;;;4981818;28;20029;-51
2022/05/30 08:20:02;;;;;;;15.80;7.10;;;;;;;;;;4984547;28;20053;-49
2022/05/30 08:22:28;;;;;;;11.00;6.03;;;;;;;;;;4983334;28;20024;-52
2022/05/30 08:24:53;;;;;;;13.13;7.43;;;;;;;;;;4982756;28;20018;-51
2022/05/30 08:27:19;;;;;;;13.30;6.32;;;;;;;;;;4982384;28;20053;-49
2022/05/30 08:29:44;;;;;;;13.38;6.47;;;;;;;;;;4981950;28;20034;-51
2022/05/30 08:32:09;;;;;;;12.18;7.30;;;;;;;;;;4985956;28;20010;-52
2022/05/30 08:34:35;;;;;;;12.97;6.57;;;;;;;;;;4984125;28;20360;-49
2022/05/30 08:37:01;;;;;;;13.40;6.80;;;;;;;;;;4983819;28;20284;-56
2022/05/30 08:42:10;;;;;;;9.85;6.15;;;;;;;;;;4985653;28;20029;-51
2022/05/30 08:44:35;;;;;;;13.10;6.53;;;;;;;;;;4985291;28;20023;-50
2022/05/30 08:47:03;;;;;;;10.33;6.00;;;;;;;;;;4984844;28;20034;-51
2022/05/30 08:49:35;;;;;;;11.68;6.22;;;;;;;;;;4970840;28;20278;-51
2022/05/30 08:52:07;;;;;;;9.95;6.20;;;;;;;;;;4966852;28;20034;-50
2022/05/30 08:54:35;;;;;;;10.55;5.43;;;;;;;;;;4961597;28;20026;-51
2022/05/30 08:57:00;;;;;;;12.00;5.78;;;;;;;;;;4967301;28;20402;-50
2022/05/30 08:59:28;;;;;;;18.10;10.77;;;;;;;;;;4964800;28;20042;-51
2022/05/30 09:01:54;;;;;;;17.95;11.48;;;;;;;;;;4965016;28;20302;-52
2022/05/30 09:04:23;;;;;;;21.42;10.70;;;;;;;;;;4979759;28;20490;-51
2022/05/30 09:06:59;;;;;;;29.50;19.30;;;;;;;;;;4961865;28;20076;-51
2022/05/30 09:09:24;;;;;;;21.02;12.93;;;;;;;;;;4974897;28;20027;-51
2022/05/30 09:11:54;;;;;;;25.27;14.23;;;;;;;;;;4962164;28;20125;-50
2022/05/30 09:14:21;;;;;;;28.02;12.80;;;;;;;;;;4962270;28;20270;-51
2022/05/30 09:16:51;;;;;;;16.92;7.57;;;;;;;;;;4962046;28;20065;-50
2022/05/30 09:19:18;;;;;;;13.23;7.55;;;;;;;;;;4977055;28;20506;-50
2022/05/30 09:21:43;;;;;;;11.23;6.35;;;;;;;;;;4975996;28;20031;-51
2022/05/30 09:24:08;;;;;;;10.87;6.37;;;;;;;;;;4966705;28;20410;-52
2022/05/30 09:26:35;;;;;;;12.52;6.75;;;;;;;;;;4967061;28;20061;-50
2022/05/30 09:29:01;;;;;;;10.02;5.90;;;;;;;;;;4965044;28;20069;-50
2022/05/30 09:31:33;;;;;;;8.50;5.78;;;;;;;;;;4975449;28;20023;-51
2022/05/30 09:33:59;;;;;;;8.18;5.82;;;;;;;;;;4961913;28;20541;-51
2022/05/30 09:36:25;;;;;;;8.38;5.72;;;;;;;;;;4976467;28;20019;-51
2022/05/30 09:38:50;;;;;;;8.50;6.35;;;;;;;;;;4965764;28;20019;-49
2022/05/30 09:41:20;;;;;;;10.20;5.97;;;;;;;;;;4967571;28;20041;-49
2022/05/30 09:43:47;;;;;;;11.93;6.28;;;;;;;;;;4962510;28;20030;-51
2022/05/30 09:46:26;;;;;;;10.02;5.60;;;;;;;;;;4968198;28;20073;-51
2022/05/30 09:49:21;;;;;;;7.18;5.32;;;;;;;;;;4950932;28;20126;-52
2022/05/30 09:51:47;;;;;;;8.93;5.40;;;;;;;;;;4948520;28;20110;-51
2022/05/30 09:54:25;;;;;;;9.00;5.65;;;;;;;;;;4968563;28;20125;-50
2022/05/30 09:56:54;;;;;;;9.80;5.60;;;;;;;;;;4968291;28;20410;-51
2022/05/30 09:59:28;;;;;;;9.88;5.32;;;;;;;;;;4968553;28;20030;-51
2022/05/30 10:01:53;;;;;;;11.48;5.72;;;;;;;;;;4975807;28;20109;-51
2022/05/30 10:04:33;;;;;;;14.50;7.07;;;;;;;;;;4975921;28;20086;-51
2022/05/30 10:07:05;;;;;;;8.32;5.30;;;;;;;;;;4956867;28;20042;-51
2022/05/30 10:09:32;;;;;;;7.93;5.15;;;;;;;;;;4967750;28;20045;-50
2022/05/30 10:11:58;;;;;;;8.35;5.53;;;;;;;;;;4949410;28;20026;-50
2022/05/30 10:14:34;;;;;;;10.15;6.03;;;;;;;;;;4971046;28;20065;-50
2022/05/30 10:17:10;;;;;;;9.60;5.63;;;;;;;;;;4965768;28;20027;-51
2022/05/30 10:19:35;;;;;;;9.55;5.43;;;;;;;;;;4968219;28;20025;-50
2022/05/30 10:28:15;;;;;;;7.55;5.13;;;;;;;;;;4971332;28;20560;-51
2022/05/30 10:30:59;;;;;;;6.78;4.50;;;;;;;;;;4969642;28;20046;-51
2022/05/30 10:33:27;;;;;;;7.95;5.00;;;;;;;;;;4971678;28;20027;-50
2022/05/30 10:36:13;;;;;;;7.78;4.70;;;;;;;;;;4968659;28;20534;-48
2022/05/30 10:38:45;;;;;;;10.10;5.10;;;;;;;;;;4955233;28;20125;-49
2022/05/30 10:41:12;;;;;;;6.63;4.35;;;;;;;;;;4966864;28;20023;-49
2022/05/30 10:43:44;;;;;;;5.50;4.50;;;;;;;;;;4966307;28;20042;-50
2022/05/30 10:46:10;;;;;;;7.47;4.70;;;;;;;;;;4954767;28;20109;-51
2022/05/30 10:48:39;;;;;;;10.43;5.18;;;;;;;;;;4972452;28;20027;-50
2022/05/30 10:51:26;;;;;;;7.33;4.57;;;;;;;;;;4974765;28;20030;-51
2022/05/30 10:54:09;;;;;;;8.45;5.18;;;;;;;;;;4969729;28;20282;-51
2022/05/30 10:56:41;;;;;;;10.00;4.65;;;;;;;;;;4972425;28;20153;-52
2022/05/30 10:59:24;;;;;;;6.30;4.60;;;;;;;;;;4954873;28;20034;-50
2022/05/30 11:01:51;;;;;;;8.20;4.68;;;;;;;;;;4947582;28;20129;-49
2022/05/30 11:04:17;;;;;;;6.05;4.28;;;;;;;;;;4957986;28;20067;-49
2022/05/30 11:06:42;;;;;;;5.93;4.33;;;;;;;;;;4968688;28;20038;-49
2022/05/30 11:09:26;;;;;;;5.78;4.40;;;;;;;;;;4961074;28;20804;-50
2022/05/30 11:11:57;;;;;;;7.63;4.78;;;;;;;;;;4955427;28;20030;-51
2022/05/30 11:14:41;;;;;;;6.93;4.35;;;;;;;;;;4970966;28;20098;-49
2022/05/30 11:17:08;;;;;;;6.80;4.30;;;;;;;;;;4970712;28;20729;-50
2022/05/30 11:19:35;;;;;;;6.40;4.30;;;;;;;;;;4972724;28;20026;-50
2022/05/30 11:22:14;;;;;;;6.57;4.13;;;;;;;;;;4954345;28;20081;-50
2022/05/30 11:24:39;;;;;;;7.43;4.20;;;;;;;;;;4949839;28;20126;-49
2022/05/30 11:27:05;;;;;;;5.63;3.73;;;;;;;;;;4967776;28;20476;-49
2022/05/30 11:29:33;;;;;;;6.28;4.10;;;;;;;;;;4967798;28;20355;-50
2022/05/30 11:32:02;;;;;;;6.13;4.13;;;;;;;;;;4971031;28;20011;-51
2022/05/30 11:34:46;;;;;;;8.00;4.20;;;;;;;;;;4968331;28;20027;-51
2022/05/30 11:37:34;;;;;;;8.20;4.13;;;;;;;;;;4967770;28;20497;-52
2022/05/30 11:40:00;;;;;;;7.15;4.68;;;;;;;;;;4964857;28;20185;-49
2022/05/30 11:42:43;;;;;;;8.53;5.00;;;;;;;;;;4967795;28;20097;-52
2022/05/30 11:45:22;;;;;;;7.70;4.47;;;;;;;;;;4969055;28;20072;-52
2022/05/30 11:47:51;;;;;;;7.47;4.50;;;;;;;;;;4955595;28;20035;-50
2022/05/30 11:50:20;;;;;;;7.70;4.65;;;;;;;;;;4967043;28;20042;-51
2022/05/30 11:53:04;;;;;;;6.45;4.25;;;;;;;;;;4954422;28;20057;-51
2022/05/30 11:55:41;;;;;;;10.35;5.35;;;;;;;;;;4967340;28;20054;-52
2022/05/30 11:58:33;;;;;;;9.68;4.60;;;;;;;;;;4965171;28;20634;-52
2022/05/30 12:00:59;;;;;;;7.57;4.40;;;;;;;;;;4948891;28;20125;-49
2022/05/30 12:03:29;;;;;;;7.93;4.85;;;;;;;;;;4948940;28;20098;-49
2022/05/30 12:05:54;;;;;;;6.78;4.32;;;;;;;;;;4970291;28;20491;-51
2022/05/30 12:08:32;;;;;;;7.33;3.87;;;;;;;;;;4968117;28;20046;-50
2022/05/30 12:11:00;;;;;;;8.20;4.47;;;;;;;;;;4951751;28;20302;-48
2022/05/30 12:13:44;;;;;;;7.03;3.95;;;;;;;;;;4961839;28;20077;-50
2022/05/30 12:16:11;;;;;;;6.60;4.13;;;;;;;;;;4964213;28;20018;-50
2022/05/30 12:24:15;;;;;;;7.63;3.97;;;;;;;;;;4966923;28;20604;-49
2022/05/30 12:26:53;;;;;;;7.57;3.80;;;;;;;;;;4967984;28;20121;-50
2022/05/30 12:29:37;;;;;;;7.53;4.25;;;;;;;;;;4962774;28;20033;-51
2022/05/30 12:32:16;;;;;;;5.95;3.65;;;;;;;;;;4972918;28;20062;-51
2022/05/30 12:35:10;;;;;;;5.95;3.80;;;;;;;;;;4971944;28;20474;-51
2022/05/30 12:37:43;;;;;;;5.20;3.45;;;;;;;;;;4971219;28;20826;-50
2022/05/30 12:40:23;;;;;;;5.45;3.22;;;;;;;;;;4965030;28;20037;-50
2022/05/30 12:43:02;;;;;;;6.72;3.72;;;;;;;;;;4966538;28;20145;-51
2022/05/30 12:45:33;;;;;;;5.97;3.50;;;;;;;;;;4966798;28;20498;-51
2022/05/30 12:47:58;;;;;;;8.13;3.72;;;;;;;;;;4966729;28;20042;-50
2022/05/30 12:50:30;;;;;;;5.03;3.65;;;;;;;;;;4981839;28;20137;-50
2022/05/30 12:52:59;;;;;;;6.75;4.00;;;;;;;;;;4983706;28;20583;-49
2022/05/30 12:55:54;;;;;;;7.30;3.35;;;;;;;;;;4983413;28;20140;-52
2022/05/30 12:58:20;;;;;;;7.85;3.15;;;;;;;;;;4970432;28;20042;-49
2022/05/30 13:00:48;;;;;;;5.63;3.28;;;;;;;;;;4978726;28;20041;-51
2022/05/30 13:03:19;;;;;;;5.35;2.92;;;;;;;;;;4983377;28;20034;-50
2022/05/30 13:05:46;;;;;;;5.75;3.85;;;;;;;;;;4984328;28;20018;-51
2022/05/30 13:08:30;;;;;;;6.78;3.45;;;;;;;;;;4981756;28;20045;-53
2022/05/30 13:10:55;;;;;;;6.00;3.00;;;;;;;;;;4978794;28;20018;-49
2022/05/30 13:13:22;;;;;;;6.27;3.60;;;;;;;;;;4984459;28;20572;-52
2022/05/30 13:15:50;;;;;;;5.45;3.13;;;;;;;;;;4983742;28;20056;-50
2022/05/30 13:18:17;;;;;;;6.80;3.13;;;;;;;;;;4973185;28;20068;-49
2022/05/30 13:20:50;;;;;;;5.80;3.38;;;;;;;;;;4981904;28;20110;-50
2022/05/30 13:23:16;;;;;;;7.15;3.53;;;;;;;;;;4966504;28;20026;-52
2022/05/30 13:25:48;;;;;;;6.95;3.38;;;;;;;;;;4982248;28;20018;-52
2022/05/30 13:28:15;;;;;;;5.30;3.25;;;;;;;;;;4980652;28;20069;-51
2022/05/30 13:30:40;;;;;;;4.70;2.92;;;;;;;;;;4977660;28;20097;-48
2022/05/30 13:33:22;;;;;;;6.83;2.67;;;;;;;;;;4964447;28;20477;-51
2022/05/30 13:35:50;;;;;;;4.10;3.10;;;;;;;;;;4964092;28;20281;-51
2022/05/30 13:38:15;;;;;;;8.35;3.70;;;;;;;;;;4970129;28;20018;-51
2022/05/30 13:40:40;;;;;;;6.37;3.17;;;;;;;;;;4985010;28;20037;-51
2022/05/30 13:43:06;;;;;;;7.07;3.17;;;;;;;;;;4987012;28;20037;-50
2022/05/30 13:45:36;;;;;;;4.63;2.70;;;;;;;;;;4961388;28;20026;-49
2022/05/30 13:48:02;;;;;;;6.93;3.28;;;;;;;;;;4979059;28;20034;-51
2022/05/30 13:50:48;;;;;;;5.82;3.25;;;;;;;;;;4978865;28;20054;-49
2022/05/30 13:53:14;;;;;;;5.18;2.90;;;;;;;;;;4978564;28;20041;-50
2022/05/30 13:55:40;;;;;;;4.82;2.75;;;;;;;;;;4980758;28;20642;-50
2022/05/30 13:58:06;;;;;;;8.25;3.40;;;;;;;;;;4964189;28;20026;-50
2022/05/30 14:00:33;;;;;;;6.43;3.47;;;;;;;;;;4981538;28;20477;-53
2022/05/30 14:02:58;;;;;;;9.90;3.40;;;;;;;;;;4978751;28;20482;-51
2022/05/30 14:05:39;;;;;;;6.45;2.97;;;;;;;;;;4982305;28;20027;-51
2022/05/30 14:08:06;;;;;;;7.10;3.00;;;;;;;;;;4977335;28;20145;-48
2022/05/30 14:10:31;;;;;;;6.78;3.20;;;;;;;;;;4968465;28;20125;-50
2022/05/30 14:12:56;;;;;;;7.87;3.40;;;;;;;;;;4968798;28;20084;-50
2022/05/30 14:15:22;;;;;;;7.18;3.40;;;;;;;;;;4984346;28;20269;-49
2022/05/30 14:17:50;;;;;;;8.07;3.20;;;;;;;;;;4982069;28;20057;-48
2022/05/30 14:20:24;;;;;;;7.40;3.13;;;;;;;;;;4980980;28;20285;-51
2022/05/30 14:22:50;;;;;;;6.20;3.00;;;;;;;;;;4975326;28;20053;-50
2022/05/30 14:25:24;;;;;;;6.00;2.85;;;;;;;;;;4978268;28;20436;-51
2022/05/30 14:27:50;;;;;;;6.47;3.08;;;;;;;;;;4976836;28;20033;-53
2022/05/30 14:30:19;;;;;;;6.10;2.85;;;;;;;;;;4967079;28;20010;-52
2022/05/30 14:32:45;;;;;;;;;;;;;;;;;;4978449;28;20065;-51
2022/05/30 14:35:11;;;;;;;6.20;2.93;;;;;;;;;;4981155;28;20404;-52
2022/05/30 14:37:40;;;;;;;6.85;3.10;;;;;;;;;;4980401;28;20033;-51
2022/05/30 14:40:08;;;;;;;4.68;3.17;;;;;;;;;;4977453;28;20069;-50
2022/05/30 14:42:36;;;;;;;7.13;3.00;;;;;;;;;;4981957;28;20105;-51
2022/05/30 14:45:24;;;;;;;8.05;3.10;;;;;;;;;;4983139;28;20105;-52
2022/05/30 14:47:50;;;;;;;6.18;3.33;;;;;;;;;;4979265;28;20121;-52
2022/05/30 14:50:53;;;;;;;4.63;2.60;;;;;;;;;;4981821;28;20939;-51
2022/05/30 14:53:24;;;;;;;7.10;3.38;;;;;;;;;;4943903;28;20031;-51
2022/05/30 14:55:51;;;;;;;4.45;2.80;;;;;;;;;;4945140;28;20158;-49
2022/05/30 14:58:27;;;;;;;8.30;2.78;;;;;;;;;;4950030;28;20034;-49
2022/05/30 15:00:59;;;;;;;7.28;2.90;;;;;;;;;;4962063;28;20029;-49
2022/05/30 15:06:14;;;;;;;7.22;2.85;;;;;;;;;;4981737;28;20083;-48
2022/05/30 15:08:40;;;;;;;7.35;2.92;;;;;;;;;;4968495;28;20029;-50
2022/05/30 15:11:15;;;;;;;6.28;3.20;;;;;;;;;;4989373;28;20030;-50
2022/05/30 15:13:48;;;;;;;7.75;3.30;;;;;;;;;;4970324;28;20101;-49
2022/05/30 15:16:13;;;;;;;6.78;3.13;;;;;;;;;;4979805;28;20684;-49